L54 weather

Agua Caliente Airport
Agua Caliente Springs, California, United States

Public forecast

Using degrees Fahrenheit for public forecast. Weather courtesy of forecast.io.

METAR (pilot weather report)

Closest report is Ramona Airport, 31.8 nm (58.8 km) W. Retrieved 2019/06/19 10:26 UTC (31 minutes ago):

KRNM 191026Z AUTO 00000KT 3/4SM BR OVC002 12/11 A2997

TAF (pilot weather forecast)

Forecast is more than 12 hours old.

Closest forecast is El Centro NAF Airport (Vraciu Field), 32.1 nm (59.5 km) ESE. Retrieved 2016/08/04 23:15 UTC (3 years ago):

TAF KNJK 032300Z 0323/0423 VRB06KT 9999 FEW080 FEW280 TEMPO 0323/0405 14010KT FM040600 VRB06KT FEW280 QNH2968INS AUTOMATED SENSOR METWATCH 0406 TIL 0413 TX41/0323Z TN28/0412Z FS30081